sensor_id;sensor_type;location;lat;lon;timestamp;P1;durP1;ratioP1;P2;durP2;ratioP2
70946;SDS011;58605;48.700;8.760;2023-02-20T00:01:50;7.23;;;4.57;;
70946;SDS011;58605;48.700;8.760;2023-02-20T00:04:18;7.07;;;4.67;;
70946;SDS011;58605;48.700;8.760;2023-02-20T00:06:44;7.80;;;4.80;;
70946;SDS011;58605;48.700;8.760;2023-02-20T00:09:10;7.63;;;4.43;;
70946;SDS011;58605;48.700;8.760;2023-02-20T00:11:36;5.00;;;4.10;;
70946;SDS011;58605;48.700;8.760;2023-02-20T00:14:02;7.47;;;3.90;;
70946;SDS011;58605;48.700;8.760;2023-02-20T00:16:28;7.13;;;4.43;;
70946;SDS011;58605;48.700;8.760;2023-02-20T00:18:55;6.57;;;3.73;;
70946;SDS011;58605;48.700;8.760;2023-02-20T00:21:21;6.43;;;4.30;;
70946;SDS011;58605;48.700;8.760;2023-02-20T00:23:47;4.60;;;3.93;;
70946;SDS011;58605;48.700;8.760;2023-02-20T00:26:14;4.90;;;3.40;;
70946;SDS011;58605;48.700;8.760;2023-02-20T00:28:40;5.80;;;3.60;;
70946;SDS011;58605;48.700;8.760;2023-02-20T00:31:10;5.27;;;3.60;;
70946;SDS011;58605;48.700;8.760;2023-02-20T00:33:37;5.37;;;3.60;;
70946;SDS011;58605;48.700;8.760;2023-02-20T00:36:05;6.37;;;3.90;;
70946;SDS011;58605;48.700;8.760;2023-02-20T00:38:32;8.27;;;4.30;;
70946;SDS011;58605;48.700;8.760;2023-02-20T00:40:58;5.87;;;3.77;;
70946;SDS011;58605;48.700;8.760;2023-02-20T00:43:23;6.73;;;3.63;;
70946;SDS011;58605;48.700;8.760;2023-02-20T00:45:49;5.93;;;3.70;;
70946;SDS011;58605;48.700;8.760;2023-02-20T00:48:15;6.17;;;3.40;;
70946;SDS011;58605;48.700;8.760;2023-02-20T00:50:41;8.37;;;4.10;;
70946;SDS011;58605;48.700;8.760;2023-02-20T00:53:09;7.33;;;4.40;;
70946;SDS011;58605;48.700;8.760;2023-02-20T00:55:35;6.67;;;4.33;;
70946;SDS011;58605;48.700;8.760;2023-02-20T00:58:01;5.27;;;4.13;;
70946;SDS011;58605;48.700;8.760;2023-02-20T01:00:28;6.17;;;4.10;;
70946;SDS011;58605;48.700;8.760;2023-02-20T01:02:54;7.90;;;4.30;;
70946;SDS011;58605;48.700;8.760;2023-02-20T01:05:20;5.57;;;4.20;;
70946;SDS011;58605;48.700;8.760;2023-02-20T01:07:47;6.13;;;3.63;;
70946;SDS011;58605;48.700;8.760;2023-02-20T01:10:14;8.47;;;4.30;;
70946;SDS011;58605;48.700;8.760;2023-02-20T01:12:40;6.53;;;4.00;;
70946;SDS011;58605;48.700;8.760;2023-02-20T01:15:34;5.17;;;3.73;;
70946;SDS011;58605;48.700;8.760;2023-02-20T01:18:07;7.43;;;3.93;;
70946;SDS011;58605;48.700;8.760;2023-02-20T01:20:33;10.23;;;4.80;;
70946;SDS011;58605;48.700;8.760;2023-02-20T01:22:59;4.63;;;3.97;;
70946;SDS011;58605;48.700;8.760;2023-02-20T01:25:25;4.93;;;3.60;;
70946;SDS011;58605;48.700;8.760;2023-02-20T01:27:51;6.17;;;4.23;;
70946;SDS011;58605;48.700;8.760;2023-02-20T01:30:17;6.80;;;3.83;;
70946;SDS011;58605;48.700;8.760;2023-02-20T01:32:45;4.63;;;3.60;;
70946;SDS011;58605;48.700;8.760;2023-02-20T01:35:11;8.40;;;4.37;;
70946;SDS011;58605;48.700;8.760;2023-02-20T01:37:36;6.47;;;3.80;;
70946;SDS011;58605;48.700;8.760;2023-02-20T01:40:03;4.93;;;3.50;;
70946;SDS011;58605;48.700;8.760;2023-02-20T01:42:31;4.53;;;3.10;;
70946;SDS011;58605;48.700;8.760;2023-02-20T01:45:15;4.90;;;3.47;;
70946;SDS011;58605;48.700;8.760;2023-02-20T01:47:45;5.37;;;3.33;;
70946;SDS011;58605;48.700;8.760;2023-02-20T01:50:11;4.67;;;3.40;;
70946;SDS011;58605;48.700;8.760;2023-02-20T01:52:38;7.17;;;3.13;;
70946;SDS011;58605;48.700;8.760;2023-02-20T01:55:06;8.43;;;3.20;;
70946;SDS011;58605;48.700;8.760;2023-02-20T01:57:35;5.20;;;3.53;;
70946;SDS011;58605;48.700;8.760;2023-02-20T02:00:06;5.90;;;3.90;;
70946;SDS011;58605;48.700;8.760;2023-02-20T02:02:40;6.23;;;3.47;;
70946;SDS011;58605;48.700;8.760;2023-02-20T02:05:12;5.47;;;3.77;;
70946;SDS011;58605;48.700;8.760;2023-02-20T02:07:40;4.83;;;3.57;;
70946;SDS011;58605;48.700;8.760;2023-02-20T02:10:06;5.33;;;4.03;;
70946;SDS011;58605;48.700;8.760;2023-02-20T02:12:34;5.40;;;3.87;;
70946;SDS011;58605;48.700;8.760;2023-02-20T02:15:01;6.13;;;3.77;;
70946;SDS011;58605;48.700;8.760;2023-02-20T02:17:41;4.47;;;3.87;;
70946;SDS011;58605;48.700;8.760;2023-02-20T02:20:31;6.73;;;4.23;;
70946;SDS011;58605;48.700;8.760;2023-02-20T02:23:29;6.37;;;4.00;;
70946;SDS011;58605;48.700;8.760;2023-02-20T02:26:35;8.17;;;4.10;;
70946;SDS011;58605;48.700;8.760;2023-02-20T02:29:25;5.60;;;3.50;;
70946;SDS011;58605;48.700;8.760;2023-02-20T02:32:20;6.03;;;3.50;;
70946;SDS011;58605;48.700;8.760;2023-02-20T02:35:09;5.90;;;3.20;;
70946;SDS011;58605;48.700;8.760;2023-02-20T02:38:08;4.73;;;3.67;;
70946;SDS011;58605;48.700;8.760;2023-02-20T02:40:42;5.70;;;3.80;;
70946;SDS011;58605;48.700;8.760;2023-02-20T02:43:17;6.10;;;3.60;;
70946;SDS011;58605;48.700;8.760;2023-02-20T02:45:50;7.57;;;3.83;;
70946;SDS011;58605;48.700;8.760;2023-02-20T02:48:19;4.80;;;3.87;;
70946;SDS011;58605;48.700;8.760;2023-02-20T02:50:51;6.67;;;3.70;;
70946;SDS011;58605;48.700;8.760;2023-02-20T02:53:20;5.17;;;3.50;;
70946;SDS011;58605;48.700;8.760;2023-02-20T02:55:46;4.13;;;3.73;;
70946;SDS011;58605;48.700;8.760;2023-02-20T02:58:12;4.30;;;3.00;;
70946;SDS011;58605;48.700;8.760;2023-02-20T03:00:41;8.97;;;3.90;;
70946;SDS011;58605;48.700;8.760;2023-02-20T03:03:11;4.13;;;3.37;;
70946;SDS011;58605;48.700;8.760;2023-02-20T03:05:41;7.23;;;4.10;;
70946;SDS011;58605;48.700;8.760;2023-02-20T03:08:16;5.90;;;3.60;;
70946;SDS011;58605;48.700;8.760;2023-02-20T03:10:55;7.87;;;3.73;;
70946;SDS011;58605;48.700;8.760;2023-02-20T03:13:25;6.73;;;3.80;;
70946;SDS011;58605;48.700;8.760;2023-02-20T03:16:13;6.77;;;3.30;;
70946;SDS011;58605;48.700;8.760;2023-02-20T03:18:40;4.77;;;3.67;;
70946;SDS011;58605;48.700;8.760;2023-02-20T03:21:08;5.77;;;3.97;;
70946;SDS011;58605;48.700;8.760;2023-02-20T03:23:41;3.70;;;3.33;;
70946;SDS011;58605;48.700;8.760;2023-02-20T03:26:13;6.80;;;3.47;;
70946;SDS011;58605;48.700;8.760;2023-02-20T03:28:42;6.13;;;3.73;;
70946;SDS011;58605;48.700;8.760;2023-02-20T03:31:12;5.13;;;3.80;;
70946;SDS011;58605;48.700;8.760;2023-02-20T03:33:42;8.03;;;3.87;;
70946;SDS011;58605;48.700;8.760;2023-02-20T03:36:33;5.50;;;3.57;;
70946;SDS011;58605;48.700;8.760;2023-02-20T03:39:22;6.10;;;2.93;;
70946;SDS011;58605;48.700;8.760;2023-02-20T03:42:11;5.13;;;2.80;;
70946;SDS011;58605;48.700;8.760;2023-02-20T03:44:58;4.67;;;2.90;;
70946;SDS011;58605;48.700;8.760;2023-02-20T03:47:26;4.27;;;3.80;;
70946;SDS011;58605;48.700;8.760;2023-02-20T03:49:53;7.70;;;3.70;;
70946;SDS011;58605;48.700;8.760;2023-02-20T03:52:20;4.77;;;3.90;;
70946;SDS011;58605;48.700;8.760;2023-02-20T03:54:49;5.63;;;3.53;;
70946;SDS011;58605;48.700;8.760;2023-02-20T03:57:16;6.70;;;4.00;;
70946;SDS011;58605;48.700;8.760;2023-02-20T03:59:46;5.83;;;4.10;;
70946;SDS011;58605;48.700;8.760;2023-02-20T04:02:14;4.33;;;3.23;;
70946;SDS011;58605;48.700;8.760;2023-02-20T04:04:45;4.77;;;3.47;;
70946;SDS011;58605;48.700;8.760;2023-02-20T04:07:15;7.50;;;3.60;;
70946;SDS011;58605;48.700;8.760;2023-02-20T04:09:45;6.60;;;3.90;;
70946;SDS011;58605;48.700;8.760;2023-02-20T04:12:15;7.97;;;3.90;;
70946;SDS011;58605;48.700;8.760;2023-02-20T04:14:45;6.30;;;4.30;;
70946;SDS011;58605;48.700;8.760;2023-02-20T04:17:15;6.73;;;4.03;;
70946;SDS011;58605;48.700;8.760;2023-02-20T04:19:45;5.43;;;4.00;;
70946;SDS011;58605;48.700;8.760;2023-02-20T04:22:13;5.33;;;3.63;;
70946;SDS011;58605;48.700;8.760;2023-02-20T04:24:45;6.47;;;3.57;;
70946;SDS011;58605;48.700;8.760;2023-02-20T04:27:17;5.07;;;3.90;;
70946;SDS011;58605;48.700;8.760;2023-02-20T04:29:44;4.00;;;3.60;;
70946;SDS011;58605;48.700;8.760;2023-02-20T04:32:11;4.23;;;3.83;;
70946;SDS011;58605;48.700;8.760;2023-02-20T04:34:37;7.10;;;4.23;;
70946;SDS011;58605;48.700;8.760;2023-02-20T04:37:04;6.80;;;4.07;;
70946;SDS011;58605;48.700;8.760;2023-02-20T04:39:33;5.47;;;4.03;;
70946;SDS011;58605;48.700;8.760;2023-02-20T04:41:59;5.73;;;3.77;;
70946;SDS011;58605;48.700;8.760;2023-02-20T04:44:26;6.40;;;3.83;;
70946;SDS011;58605;48.700;8.760;2023-02-20T04:46:55;7.40;;;4.53;;
70946;SDS011;58605;48.700;8.760;2023-02-20T04:49:22;7.60;;;4.80;;
70946;SDS011;58605;48.700;8.760;2023-02-20T04:51:48;7.90;;;4.90;;
70946;SDS011;58605;48.700;8.760;2023-02-20T04:54:14;7.07;;;4.50;;
70946;SDS011;58605;48.700;8.760;2023-02-20T04:56:40;5.07;;;4.43;;
70946;SDS011;58605;48.700;8.760;2023-02-20T04:59:06;9.13;;;5.13;;
70946;SDS011;58605;48.700;8.760;2023-02-20T05:01:34;6.07;;;4.03;;
70946;SDS011;58605;48.700;8.760;2023-02-20T05:04:00;6.53;;;4.43;;
70946;SDS011;58605;48.700;8.760;2023-02-20T05:06:26;6.97;;;4.53;;
70946;SDS011;58605;48.700;8.760;2023-02-20T05:08:52;6.63;;;4.70;;
70946;SDS011;58605;48.700;8.760;2023-02-20T05:11:18;7.67;;;4.67;;
70946;SDS011;58605;48.700;8.760;2023-02-20T05:13:44;7.90;;;4.43;;
70946;SDS011;58605;48.700;8.760;2023-02-20T05:16:10;8.77;;;4.77;;
70946;SDS011;58605;48.700;8.760;2023-02-20T05:18:39;6.73;;;4.83;;
70946;SDS011;58605;48.700;8.760;2023-02-20T05:21:05;11.37;;;5.40;;
70946;SDS011;58605;48.700;8.760;2023-02-20T05:23:49;10.73;;;5.13;;
70946;SDS011;58605;48.700;8.760;2023-02-20T05:26:16;8.27;;;4.97;;
70946;SDS011;58605;48.700;8.760;2023-02-20T05:28:43;10.20;;;5.00;;
70946;SDS011;58605;48.700;8.760;2023-02-20T05:31:09;7.23;;;5.30;;
70946;SDS011;58605;48.700;8.760;2023-02-20T05:33:36;5.90;;;4.83;;
70946;SDS011;58605;48.700;8.760;2023-02-20T05:36:04;8.50;;;5.47;;
70946;SDS011;58605;48.700;8.760;2023-02-20T05:38:30;13.83;;;5.93;;
70946;SDS011;58605;48.700;8.760;2023-02-20T05:40:57;6.27;;;4.90;;
70946;SDS011;58605;48.700;8.760;2023-02-20T05:43:23;6.97;;;5.53;;
70946;SDS011;58605;48.700;8.760;2023-02-20T05:45:49;7.60;;;4.80;;
70946;SDS011;58605;48.700;8.760;2023-02-20T05:48:15;9.23;;;4.80;;
70946;SDS011;58605;48.700;8.760;2023-02-20T05:50:41;7.30;;;4.70;;
70946;SDS011;58605;48.700;8.760;2023-02-20T05:53:08;9.83;;;4.80;;
70946;SDS011;58605;48.700;8.760;2023-02-20T05:55:34;8.60;;;5.33;;
70946;SDS011;58605;48.700;8.760;2023-02-20T05:58:00;6.50;;;4.77;;
70946;SDS011;58605;48.700;8.760;2023-02-20T06:00:26;8.67;;;5.10;;
70946;SDS011;58605;48.700;8.760;2023-02-20T06:02:52;7.00;;;4.90;;
70946;SDS011;58605;48.700;8.760;2023-02-20T06:05:18;6.57;;;4.87;;
70946;SDS011;58605;48.700;8.760;2023-02-20T06:07:45;7.10;;;4.87;;
70946;SDS011;58605;48.700;8.760;2023-02-20T06:10:13;6.17;;;4.73;;
70946;SDS011;58605;48.700;8.760;2023-02-20T06:12:40;7.23;;;4.70;;
70946;SDS011;58605;48.700;8.760;2023-02-20T06:15:06;5.83;;;4.90;;
70946;SDS011;58605;48.700;8.760;2023-02-20T06:17:32;7.97;;;5.70;;
70946;SDS011;58605;48.700;8.760;2023-02-20T06:19:58;7.27;;;4.93;;
70946;SDS011;58605;48.700;8.760;2023-02-20T06:22:27;7.87;;;5.40;;
70946;SDS011;58605;48.700;8.760;2023-02-20T06:24:53;8.20;;;4.90;;
70946;SDS011;58605;48.700;8.760;2023-02-20T06:27:20;8.03;;;5.53;;
70946;SDS011;58605;48.700;8.760;2023-02-20T06:29:46;10.60;;;5.30;;
70946;SDS011;58605;48.700;8.760;2023-02-20T06:32:12;10.33;;;5.53;;
70946;SDS011;58605;48.700;8.760;2023-02-20T06:34:38;12.43;;;5.77;;
70946;SDS011;58605;48.700;8.760;2023-02-20T06:37:04;7.43;;;5.00;;
70946;SDS011;58605;48.700;8.760;2023-02-20T06:39:31;9.97;;;5.27;;
70946;SDS011;58605;48.700;8.760;2023-02-20T06:41:57;9.73;;;5.40;;
70946;SDS011;58605;48.700;8.760;2023-02-20T06:44:24;12.67;;;6.03;;
70946;SDS011;58605;48.700;8.760;2023-02-20T06:46:50;10.17;;;5.90;;
70946;SDS011;58605;48.700;8.760;2023-02-20T06:49:16;11.13;;;6.00;;
70946;SDS011;58605;48.700;8.760;2023-02-20T06:51:42;7.37;;;5.30;;
70946;SDS011;58605;48.700;8.760;2023-02-20T06:54:09;8.30;;;5.47;;
70946;SDS011;58605;48.700;8.760;2023-02-20T06:56:37;6.20;;;5.03;;
70946;SDS011;58605;48.700;8.760;2023-02-20T06:59:03;6.73;;;5.77;;
70946;SDS011;58605;48.700;8.760;2023-02-20T07:01:36;6.60;;;5.90;;
70946;SDS011;58605;48.700;8.760;2023-02-20T07:04:04;11.20;;;6.00;;
70946;SDS011;58605;48.700;8.760;2023-02-20T07:06:39;9.57;;;6.10;;
70946;SDS011;58605;48.700;8.760;2023-02-20T07:09:06;8.23;;;6.47;;
70946;SDS011;58605;48.700;8.760;2023-02-20T07:11:32;9.57;;;6.30;;
70946;SDS011;58605;48.700;8.760;2023-02-20T07:13:58;11.00;;;6.40;;
70946;SDS011;58605;48.700;8.760;2023-02-20T07:16:24;10.43;;;6.83;;
70946;SDS011;58605;48.700;8.760;2023-02-20T07:18:51;8.13;;;6.03;;
70946;SDS011;58605;48.700;8.760;2023-02-20T07:21:17;11.30;;;6.83;;
70946;SDS011;58605;48.700;8.760;2023-02-20T07:23:43;12.43;;;7.03;;
70946;SDS011;58605;48.700;8.760;2023-02-20T07:26:16;9.70;;;6.17;;
70946;SDS011;58605;48.700;8.760;2023-02-20T07:28:43;10.43;;;6.37;;
70946;SDS011;58605;48.700;8.760;2023-02-20T07:31:09;11.37;;;6.10;;
70946;SDS011;58605;48.700;8.760;2023-02-20T07:33:35;8.80;;;6.67;;
70946;SDS011;58605;48.700;8.760;2023-02-20T07:36:03;9.33;;;6.17;;
70946;SDS011;58605;48.700;8.760;2023-02-20T07:38:30;9.50;;;6.80;;
70946;SDS011;58605;48.700;8.760;2023-02-20T07:40:56;8.00;;;6.33;;
70946;SDS011;58605;48.700;8.760;2023-02-20T07:43:22;9.97;;;6.13;;
70946;SDS011;58605;48.700;8.760;2023-02-20T07:45:48;10.07;;;7.27;;
70946;SDS011;58605;48.700;8.760;2023-02-20T07:48:14;9.57;;;5.90;;
70946;SDS011;58605;48.700;8.760;2023-02-20T07:50:40;5.87;;;4.50;;
70946;SDS011;58605;48.700;8.760;2023-02-20T07:53:08;10.13;;;6.20;;
70946;SDS011;58605;48.700;8.760;2023-02-20T07:55:34;5.67;;;4.83;;
70946;SDS011;58605;48.700;8.760;2023-02-20T07:58:00;8.73;;;5.60;;
70946;SDS011;58605;48.700;8.760;2023-02-20T08:00:26;7.93;;;4.60;;
70946;SDS011;58605;48.700;8.760;2023-02-20T08:02:52;10.70;;;5.93;;
70946;SDS011;58605;48.700;8.760;2023-02-20T08:05:18;6.37;;;4.23;;
70946;SDS011;58605;48.700;8.760;2023-02-20T08:07:45;5.90;;;4.10;;
70946;SDS011;58605;48.700;8.760;2023-02-20T08:10:14;4.80;;;3.50;;
70946;SDS011;58605;48.700;8.760;2023-02-20T08:12:41;7.20;;;4.20;;
70946;SDS011;58605;48.700;8.760;2023-02-20T08:15:07;6.27;;;4.17;;
70946;SDS011;58605;48.700;8.760;2023-02-20T08:17:36;6.87;;;4.37;;
70946;SDS011;58605;48.700;8.760;2023-02-20T08:20:03;7.63;;;4.63;;
70946;SDS011;58605;48.700;8.760;2023-02-20T08:22:30;6.23;;;4.40;;
70946;SDS011;58605;48.700;8.760;2023-02-20T08:24:56;4.90;;;4.03;;
70946;SDS011;58605;48.700;8.760;2023-02-20T08:27:24;4.97;;;3.40;;
70946;SDS011;58605;48.700;8.760;2023-02-20T08:29:51;5.33;;;4.30;;
70946;SDS011;58605;48.700;8.760;2023-02-20T08:32:17;6.37;;;5.47;;
70946;SDS011;58605;48.700;8.760;2023-02-20T08:34:43;5.23;;;4.30;;
70946;SDS011;58605;48.700;8.760;2023-02-20T08:37:09;5.23;;;3.60;;
70946;SDS011;58605;48.700;8.760;2023-02-20T08:39:35;5.97;;;4.00;;
70946;SDS011;58605;48.700;8.760;2023-02-20T08:42:02;7.70;;;4.30;;
70946;SDS011;58605;48.700;8.760;2023-02-20T08:44:29;4.47;;;4.03;;
70946;SDS011;58605;48.700;8.760;2023-02-20T08:46:55;7.33;;;4.27;;
70946;SDS011;58605;48.700;8.760;2023-02-20T08:49:21;5.27;;;4.13;;
70946;SDS011;58605;48.700;8.760;2023-02-20T08:51:48;5.87;;;4.10;;
70946;SDS011;58605;48.700;8.760;2023-02-20T08:54:18;7.27;;;4.30;;
70946;SDS011;58605;48.700;8.760;2023-02-20T08:56:44;8.77;;;4.30;;
70946;SDS011;58605;48.700;8.760;2023-02-20T08:59:10;6.87;;;4.03;;
70946;SDS011;58605;48.700;8.760;2023-02-20T09:01:39;5.20;;;4.20;;
70946;SDS011;58605;48.700;8.760;2023-02-20T09:04:05;4.60;;;3.87;;
70946;SDS011;58605;48.700;8.760;2023-02-20T09:06:32;6.07;;;4.10;;
70946;SDS011;58605;48.700;8.760;2023-02-20T09:08:59;6.37;;;4.37;;
70946;SDS011;58605;48.700;8.760;2023-02-20T09:11:25;6.77;;;4.03;;
70946;SDS011;58605;48.700;8.760;2023-02-20T09:13:51;4.43;;;3.57;;
70946;SDS011;58605;48.700;8.760;2023-02-20T09:16:18;4.87;;;3.73;;
70946;SDS011;58605;48.700;8.760;2023-02-20T09:18:47;5.13;;;3.97;;
70946;SDS011;58605;48.700;8.760;2023-02-20T09:21:15;9.27;;;4.17;;
70946;SDS011;58605;48.700;8.760;2023-02-20T09:23:43;5.63;;;3.90;;
70946;SDS011;58605;48.700;8.760;2023-02-20T09:26:10;7.37;;;4.10;;
70946;SDS011;58605;48.700;8.760;2023-02-20T09:28:36;6.27;;;3.83;;
70946;SDS011;58605;48.700;8.760;2023-02-20T09:31:04;5.03;;;3.47;;
70946;SDS011;58605;48.700;8.760;2023-02-20T09:33:30;5.93;;;3.83;;
70946;SDS011;58605;48.700;8.760;2023-02-20T09:35:58;5.07;;;3.63;;
70946;SDS011;58605;48.700;8.760;2023-02-20T09:38:24;6.70;;;4.40;;
70946;SDS011;58605;48.700;8.760;2023-02-20T09:40:52;7.67;;;4.13;;
70946;SDS011;58605;48.700;8.760;2023-02-20T09:43:35;4.53;;;3.57;;
70946;SDS011;58605;48.700;8.760;2023-02-20T09:46:10;7.47;;;3.53;;
70946;SDS011;58605;48.700;8.760;2023-02-20T09:48:42;6.17;;;3.90;;
70946;SDS011;58605;48.700;8.760;2023-02-20T09:51:18;4.67;;;4.13;;
70946;SDS011;58605;48.700;8.760;2023-02-20T09:53:49;4.83;;;3.40;;
70946;SDS011;58605;48.700;8.760;2023-02-20T09:56:19;6.63;;;4.20;;
70946;SDS011;58605;48.700;8.760;2023-02-20T09:58:48;4.03;;;3.40;;
70946;SDS011;58605;48.700;8.760;2023-02-20T10:01:18;8.20;;;3.87;;
70946;SDS011;58605;48.700;8.760;2023-02-20T10:03:50;11.30;;;3.73;;
70946;SDS011;58605;48.700;8.760;2023-02-20T10:06:21;6.17;;;3.37;;
70946;SDS011;58605;48.700;8.760;2023-02-20T10:08:50;6.33;;;3.77;;
70946;SDS011;58605;48.700;8.760;2023-02-20T10:11:32;6.40;;;3.77;;
70946;SDS011;58605;48.700;8.760;2023-02-20T10:14:18;7.70;;;3.40;;
70946;SDS011;58605;48.700;8.760;2023-02-20T10:17:01;4.37;;;3.33;;
70946;SDS011;58605;48.700;8.760;2023-02-20T10:19:36;10.67;;;2.90;;
70946;SDS011;58605;48.700;8.760;2023-02-20T10:22:10;3.23;;;2.53;;
70946;SDS011;58605;48.700;8.760;2023-02-20T10:24:45;2.53;;;2.20;;
70946;SDS011;58605;48.700;8.760;2023-02-20T10:27:30;4.03;;;2.33;;
70946;SDS011;58605;48.700;8.760;2023-02-20T10:30:08;4.73;;;2.50;;
70946;SDS011;58605;48.700;8.760;2023-02-20T10:32:37;5.17;;;2.60;;
70946;SDS011;58605;48.700;8.760;2023-02-20T10:35:08;4.60;;;2.33;;
70946;SDS011;58605;48.700;8.760;2023-02-20T10:37:39;2.63;;;2.00;;
70946;SDS011;58605;48.700;8.760;2023-02-20T10:40:11;3.33;;;1.90;;
70946;SDS011;58605;48.700;8.760;2023-02-20T10:42:43;3.37;;;1.90;;
70946;SDS011;58605;48.700;8.760;2023-02-20T10:45:16;3.37;;;1.90;;
70946;SDS011;58605;48.700;8.760;2023-02-20T10:47:52;2.93;;;1.90;;
70946;SDS011;58605;48.700;8.760;2023-02-20T10:50:26;2.53;;;1.53;;
70946;SDS011;58605;48.700;8.760;2023-02-20T10:52:58;4.77;;;2.17;;
70946;SDS011;58605;48.700;8.760;2023-02-20T10:55:29;2.07;;;1.87;;
70946;SDS011;58605;48.700;8.760;2023-02-20T10:58:01;3.33;;;1.70;;
70946;SDS011;58605;48.700;8.760;2023-02-20T11:00:33;3.07;;;1.83;;
70946;SDS011;58605;48.700;8.760;2023-02-20T11:03:04;1.70;;;1.37;;
70946;SDS011;58605;48.700;8.760;2023-02-20T11:05:35;3.23;;;1.80;;
70946;SDS011;58605;48.700;8.760;2023-02-20T11:08:06;2.07;;;1.70;;
70946;SDS011;58605;48.700;8.760;2023-02-20T11:10:32;2.97;;;1.67;;
70946;SDS011;58605;48.700;8.760;2023-02-20T11:12:59;2.83;;;1.97;;
70946;SDS011;58605;48.700;8.760;2023-02-20T11:15:27;3.27;;;1.70;;
70946;SDS011;58605;48.700;8.760;2023-02-20T11:17:56;3.07;;;1.90;;
70946;SDS011;58605;48.700;8.760;2023-02-20T11:20:37;2.60;;;1.80;;
70946;SDS011;58605;48.700;8.760;2023-02-20T11:23:08;3.60;;;2.03;;
70946;SDS011;58605;48.700;8.760;2023-02-20T11:25:36;7.13;;;2.40;;
70946;SDS011;58605;48.700;8.760;2023-02-20T11:28:06;2.70;;;1.80;;
70946;SDS011;58605;48.700;8.760;2023-02-20T11:30:37;2.10;;;1.90;;
70946;SDS011;58605;48.700;8.760;2023-02-20T11:33:08;1.97;;;1.63;;
70946;SDS011;58605;48.700;8.760;2023-02-20T11:35:38;3.33;;;2.00;;
70946;SDS011;58605;48.700;8.760;2023-02-20T11:44:06;3.20;;;2.03;;
70946;SDS011;58605;48.700;8.760;2023-02-20T11:47:07;2.40;;;1.60;;
70946;SDS011;58605;48.700;8.760;2023-02-20T11:49:45;2.33;;;1.70;;
70946;SDS011;58605;48.700;8.760;2023-02-20T11:52:15;2.07;;;1.60;;
70946;SDS011;58605;48.700;8.760;2023-02-20T11:54:43;2.83;;;1.60;;
70946;SDS011;58605;48.700;8.760;2023-02-20T11:57:17;2.40;;;2.03;;
70946;SDS011;58605;48.700;8.760;2023-02-20T11:59:50;1.73;;;1.63;;
70946;SDS011;58605;48.700;8.760;2023-02-20T12:02:31;2.27;;;1.70;;
70946;SDS011;58605;48.700;8.760;2023-02-20T12:05:05;4.77;;;1.67;;
70946;SDS011;58605;48.700;8.760;2023-02-20T12:07:37;2.53;;;1.80;;
70946;SDS011;58605;48.700;8.760;2023-02-20T12:10:13;2.63;;;1.80;;
70946;SDS011;58605;48.700;8.760;2023-02-20T12:12:47;1.77;;;1.67;;
70946;SDS011;58605;48.700;8.760;2023-02-20T12:15:14;2.00;;;1.70;;
70946;SDS011;58605;48.700;8.760;2023-02-20T12:17:45;1.70;;;1.50;;
70946;SDS011;58605;48.700;8.760;2023-02-20T12:20:23;2.97;;;1.90;;
70946;SDS011;58605;48.700;8.760;2023-02-20T12:22:51;1.57;;;1.40;;
70946;SDS011;58605;48.700;8.760;2023-02-20T12:25:26;1.90;;;1.70;;
70946;SDS011;58605;48.700;8.760;2023-02-20T12:28:04;2.27;;;1.67;;
70946;SDS011;58605;48.700;8.760;2023-02-20T12:30:43;1.60;;;1.50;;
70946;SDS011;58605;48.700;8.760;2023-02-20T12:33:32;2.37;;;1.60;;
70946;SDS011;58605;48.700;8.760;2023-02-20T12:36:17;4.50;;;1.67;;
70946;SDS011;58605;48.700;8.760;2023-02-20T12:38:53;1.53;;;1.43;;
70946;SDS011;58605;48.700;8.760;2023-02-20T12:41:28;4.17;;;1.80;;
70946;SDS011;58605;48.700;8.760;2023-02-20T12:46:54;1.73;;;1.47;;
70946;SDS011;58605;48.700;8.760;2023-02-20T12:52:35;2.90;;;1.40;;
70946;SDS011;58605;48.700;8.760;2023-02-20T12:55:17;2.67;;;1.50;;
70946;SDS011;58605;48.700;8.760;2023-02-20T12:57:52;1.90;;;1.37;;
70946;SDS011;58605;48.700;8.760;2023-02-20T13:00:33;3.23;;;1.60;;
70946;SDS011;58605;48.700;8.760;2023-02-20T13:03:05;1.70;;;1.60;;
70946;SDS011;58605;48.700;8.760;2023-02-20T13:05:36;2.23;;;1.60;;
70946;SDS011;58605;48.700;8.760;2023-02-20T13:08:08;2.53;;;1.40;;
70946;SDS011;58605;48.700;8.760;2023-02-20T13:10:42;2.90;;;1.67;;
70946;SDS011;58605;48.700;8.760;2023-02-20T13:13:16;1.40;;;1.30;;
70946;SDS011;58605;48.700;8.760;2023-02-20T13:15:45;1.97;;;1.50;;
70946;SDS011;58605;48.700;8.760;2023-02-20T13:18:19;1.93;;;1.30;;
70946;SDS011;58605;48.700;8.760;2023-02-20T13:20:51;2.00;;;1.20;;
70946;SDS011;58605;48.700;8.760;2023-02-20T13:23:27;2.90;;;1.50;;
70946;SDS011;58605;48.700;8.760;2023-02-20T13:25:55;1.57;;;1.47;;
70946;SDS011;58605;48.700;8.760;2023-02-20T13:31:14;3.23;;;1.60;;
70946;SDS011;58605;48.700;8.760;2023-02-20T13:33:42;1.90;;;1.40;;
70946;SDS011;58605;48.700;8.760;2023-02-20T13:36:17;2.00;;;1.63;;
70946;SDS011;58605;48.700;8.760;2023-02-20T13:42:28;1.93;;;1.60;;
70946;SDS011;58605;48.700;8.760;2023-02-20T13:44:57;3.87;;;1.50;;
70946;SDS011;58605;48.700;8.760;2023-02-20T13:47:34;3.03;;;1.50;;
70946;SDS011;58605;48.700;8.760;2023-02-20T13:50:25;1.50;;;1.40;;
70946;SDS011;58605;48.700;8.760;2023-02-20T13:52:54;2.77;;;1.77;;
70946;SDS011;58605;48.700;8.760;2023-02-20T13:55:23;2.83;;;1.57;;
70946;SDS011;58605;48.700;8.760;2023-02-20T13:57:52;1.33;;;1.30;;
70946;SDS011;58605;48.700;8.760;2023-02-20T14:00:24;1.83;;;1.30;;
70946;SDS011;58605;48.700;8.760;2023-02-20T14:02:53;3.13;;;1.60;;
70946;SDS011;58605;48.700;8.760;2023-02-20T14:05:20;1.47;;;1.37;;
70946;SDS011;58605;48.700;8.760;2023-02-20T14:07:48;1.20;;;1.20;;
70946;SDS011;58605;48.700;8.760;2023-02-20T14:10:15;3.07;;;1.30;;
70946;SDS011;58605;48.700;8.760;2023-02-20T14:12:43;2.93;;;1.53;;
70946;SDS011;58605;48.700;8.760;2023-02-20T14:15:09;2.67;;;1.27;;
70946;SDS011;58605;48.700;8.760;2023-02-20T14:17:37;1.80;;;1.30;;
70946;SDS011;58605;48.700;8.760;2023-02-20T14:20:14;1.30;;;1.20;;
70946;SDS011;58605;48.700;8.760;2023-02-20T14:22:44;1.20;;;1.20;;
70946;SDS011;58605;48.700;8.760;2023-02-20T14:25:21;1.20;;;1.10;;
70946;SDS011;58605;48.700;8.760;2023-02-20T14:27:49;2.10;;;1.70;;
70946;SDS011;58605;48.700;8.760;2023-02-20T14:30:16;1.20;;;1.20;;
70946;SDS011;58605;48.700;8.760;2023-02-20T14:32:45;1.40;;;1.30;;
70946;SDS011;58605;48.700;8.760;2023-02-20T14:38:12;1.33;;;1.23;;
70946;SDS011;58605;48.700;8.760;2023-02-20T14:40:45;2.30;;;1.30;;
70946;SDS011;58605;48.700;8.760;2023-02-20T14:43:13;1.77;;;1.20;;
70946;SDS011;58605;48.700;8.760;2023-02-20T14:45:41;1.70;;;1.60;;
70946;SDS011;58605;48.700;8.760;2023-02-20T14:48:20;1.30;;;1.20;;
70946;SDS011;58605;48.700;8.760;2023-02-20T14:50:48;2.53;;;1.30;;
70946;SDS011;58605;48.700;8.760;2023-02-20T14:53:28;1.47;;;1.37;;
70946;SDS011;58605;48.700;8.760;2023-02-20T14:55:55;1.57;;;1.47;;
70946;SDS011;58605;48.700;8.760;2023-02-20T14:58:21;1.13;;;1.10;;
70946;SDS011;58605;48.700;8.760;2023-02-20T15:00:48;1.37;;;1.20;;
70946;SDS011;58605;48.700;8.760;2023-02-20T15:03:19;1.30;;;1.30;;
70946;SDS011;58605;48.700;8.760;2023-02-20T15:05:47;1.50;;;1.20;;
70946;SDS011;58605;48.700;8.760;2023-02-20T15:08:18;1.10;;;1.10;;
70946;SDS011;58605;48.700;8.760;2023-02-20T15:10:46;2.13;;;1.30;;
70946;SDS011;58605;48.700;8.760;2023-02-20T15:13:13;1.40;;;1.30;;
70946;SDS011;58605;48.700;8.760;2023-02-20T15:15:43;1.47;;;1.30;;
70946;SDS011;58605;48.700;8.760;2023-02-20T15:18:11;2.77;;;1.37;;
70946;SDS011;58605;48.700;8.760;2023-02-20T15:20:43;1.37;;;1.37;;
70946;SDS011;58605;48.700;8.760;2023-02-20T15:23:18;2.20;;;1.40;;
70946;SDS011;58605;48.700;8.760;2023-02-20T15:25:48;1.40;;;1.30;;
70946;SDS011;58605;48.700;8.760;2023-02-20T15:28:26;2.47;;;1.40;;